Time;durP1;ratioP1;P1;durP2;ratioP2;P2;SDS_P1;SDS_P2;PMS_P1;PMS_P2;Temp;Humidity;BMP_temperature;BMP_pressure;BME280_temperature;BME280_humidity;BME280_pressure;Samples;Min_cycle;Max_cycle;Signal;HPM_P1;HPM_P2
2021/12/16 00:34:24;;;;;;;2.95;1.70;;;22.00;46.90;;;;;;5058636;28;43771;-64
2021/12/16 00:36:51;;;;;;;1.90;1.60;;;22.00;46.90;;;;;;5064391;28;43807;-64
2021/12/16 00:39:29;;;;;;;2.35;1.45;;;22.00;47.00;;;;;;5066885;28;43463;-63
2021/12/16 00:42:03;;;;;;;2.53;1.58;;;21.90;46.90;;;;;;5062451;28;43390;-64
2021/12/16 00:49:44;;;;;;;3.30;2.15;;;21.90;46.90;;;;;;5065407;28;43430;-63
2021/12/16 00:55:28;;;;;;;;;;;21.90;47.00;;;;;;5029122;28;44148;-64
2021/12/16 00:57:53;;;;;;;2.33;1.50;;;21.90;47.10;;;;;;5032399;28;43497;-64
2021/12/16 01:00:25;;;;;;;2.10;1.35;;;21.90;47.10;;;;;;5047102;28;43503;-64
2021/12/16 01:49:51;;;;;;;1.70;1.50;;;21.70;47.20;;;;;;5048179;28;43791;-64
2021/12/16 01:55:18;;;;;;;2.63;1.63;;;21.70;47.40;;;;;;5014643;28;43977;-64
2021/12/16 01:57:51;;;;;;;2.55;1.83;;;21.70;47.30;;;;;;5051295;28;43465;-64
2021/12/16 02:00:51;;;;;;;2.38;1.50;;;21.70;47.40;;;;;;5050065;28;43791;-63
2021/12/16 02:03:26;;;;;;;1.77;1.30;;;21.70;47.30;;;;;;5066140;28;43913;-64
2021/12/16 02:08:32;;;;;;;2.33;1.50;;;21.70;47.40;;;;;;5049659;28;43641;-65
2021/12/16 02:27:24;;;;;;;2.17;1.50;;;21.70;47.40;;;;;;5052547;28;43663;-63
2021/12/16 02:28:05;;;;;;;3.83;1.90;;;21.60;47.40;;;;;;5043912;28;43487;-64
2021/12/16 02:38:56;;;;;;;2.47;1.85;;;21.50;47.50;;;;;;5057007;28;43438;-65
2021/12/16 02:41:25;;;;;;;2.53;1.60;;;21.60;47.50;;;;;;5029360;28;43503;-64
2021/12/16 02:44:10;;;;;;;2.35;1.67;;;21.50;47.40;;;;;;5065196;27;43567;-64
2021/12/16 02:49:32;;;;;;;2.15;1.70;;;21.50;47.50;;;;;;5017342;28;43432;-64
2021/12/16 02:52:00;;;;;;;3.17;1.60;;;21.50;47.50;;;;;;5050337;28;43498;-64
2021/12/16 02:54:28;;;;;;;3.85;1.60;;;21.50;47.50;;;;;;5029336;28;44187;-65
2021/12/16 02:56:56;;;;;;;1.95;1.65;;;21.50;47.50;;;;;;5039359;28;43488;-63
2021/12/16 02:59:28;;;;;;;3.03;1.70;;;21.50;47.50;;;;;;5063170;28;43486;-64
2021/12/16 03:02:04;;;;;;;2.20;1.50;;;21.50;47.50;;;;;;5048466;28;43524;-64
2021/12/16 03:04:35;;;;;;;2.38;1.58;;;21.50;47.50;;;;;;5039944;28;43831;-64
2021/12/16 03:07:04;;;;;;;3.00;1.60;;;21.50;47.50;;;;;;5057644;28;43560;-65
2021/12/16 03:10:08;;;;;;;2.30;1.42;;;21.50;47.60;;;;;;5063981;28;43478;-62
2021/12/16 03:15:39;;;;;;;2.72;1.38;;;21.40;47.60;;;;;;5063209;28;43748;-65
2021/12/16 03:20:51;;;;;;;1.77;1.60;;;21.40;47.60;;;;;;5044618;28;43435;-64
2021/12/16 03:26:24;;;;;;;2.47;1.30;;;21.40;47.70;;;;;;5064176;28;43908;-64
2021/12/16 03:32:01;;;;;;;2.78;1.50;;;21.40;47.70;;;;;;5044942;28;43602;-64
2021/12/16 03:37:17;;;;;;;1.95;1.33;;;21.40;47.70;;;;;;5057339;28;44657;-64
2021/12/16 03:39:56;;;;;;;2.40;1.45;;;21.40;47.60;;;;;;5042404;28;43457;-62
2021/12/16 03:42:31;;;;;;;3.22;1.50;;;21.40;47.60;;;;;;5036887;28;43406;-64
2021/12/16 03:45:07;;;;;;;1.38;1.13;;;21.40;47.60;;;;;;5042554;28;43631;-63
2021/12/16 03:47:44;;;;;;;1.58;1.23;;;21.30;47.50;;;;;;5045569;28;44325;-64
2021/12/16 03:50:19;;;;;;;1.73;1.42;;;21.30;47.60;;;;;;5045006;28;43989;-64
2021/12/16 03:52:51;;;;;;;2.75;1.45;;;21.30;47.50;;;;;;5036680;28;43413;-64
2021/12/16 03:55:19;;;;;;;1.55;1.30;;;21.30;47.60;;;;;;5061136;28;43523;-64
2021/12/16 03:57:48;;;;;;;1.70;1.30;;;21.30;47.60;;;;;;5043007;28;44934;-65
2021/12/16 04:00:29;;;;;;;2.55;1.38;;;21.30;47.60;;;;;;5032409;28;43853;-63
2021/12/16 04:03:01;;;;;;;2.08;1.30;;;21.30;47.60;;;;;;5050754;28;43436;-64
2021/12/16 04:05:34;;;;;;;1.80;1.30;;;21.30;47.60;;;;;;5051327;28;43458;-64
2021/12/16 04:08:06;;;;;;;1.73;1.25;;;21.30;47.60;;;;;;5053459;28;44909;-62
2021/12/16 04:10:52;;;;;;;1.52;1.33;;;21.30;47.70;;;;;;5041304;28;43444;-64
2021/12/16 04:13:23;;;;;;;1.58;1.23;;;21.30;47.70;;;;;;5050691;28;43461;-63
2021/12/16 04:15:57;;;;;;;1.50;1.40;;;21.30;47.60;;;;;;5050682;28;43523;-64
2021/12/16 04:18:26;;;;;;;2.03;1.38;;;21.30;47.60;;;;;;5043136;28;43866;-63
2021/12/16 04:20:54;;;;;;;2.88;1.40;;;21.30;47.60;;;;;;5042122;28;43958;-63
2021/12/16 04:23:22;;;;;;;2.63;1.33;;;21.30;47.80;;;;;;5062345;28;43459;-64
2021/12/16 04:25:49;;;;;;;2.08;1.40;;;21.30;47.60;;;;;;5069049;28;43573;-63
2021/12/16 04:28:25;;;;;;;2.00;1.27;;;21.30;47.60;;;;;;5041177;28;43810;-64
2021/12/16 04:30:56;;;;;;;1.85;1.25;;;21.20;47.60;;;;;;5028308;28;44134;-65
2021/12/16 04:33:28;;;;;;;2.70;1.33;;;21.20;47.50;;;;;;5037082;28;43390;-66
2021/12/16 04:35:57;;;;;;;;;;;21.20;47.50;;;;;;5059598;28;43450;-65
2021/12/16 04:38:25;;;;;;;1.50;1.17;;;21.20;47.50;;;;;;5024325;28;43899;-63
2021/12/16 04:40:53;;;;;;;2.50;1.48;;;21.20;47.60;;;;;;5043483;28;43550;-63
2021/12/16 04:43:23;;;;;;;2.25;1.38;;;21.20;47.70;;;;;;5034610;28;43421;-64
2021/12/16 04:46:05;;;;;;;3.05;1.60;;;21.20;47.60;;;;;;5044408;28;43670;-65
2021/12/16 04:48:34;;;;;;;3.42;1.65;;;21.20;47.60;;;;;;5043076;28;43714;-64
2021/12/16 04:51:05;;;;;;;4.70;2.15;;;21.20;47.60;;;;;;5035106;28;43603;-64
2021/12/16 04:53:33;;;;;;;3.80;1.55;;;21.20;47.70;;;;;;5029156;28;43508;-63
2021/12/16 04:56:02;;;;;;;1.95;1.60;;;21.20;47.60;;;;;;5065464;28;43492;-65
2021/12/16 04:58:52;;;;;;;2.40;1.23;;;21.10;47.60;;;;;;5056876;28;45175;-63
2021/12/16 05:01:21;;;;;;;;;;;21.10;47.60;;;;;;5038492;28;43394;-63
2021/12/16 05:03:49;;;;;;;1.88;1.40;;;21.20;47.60;;;;;;5046104;28;43428;-64
2021/12/16 05:06:17;;;;;;;2.13;1.45;;;21.10;47.70;;;;;;5022833;28;44271;-65
2021/12/16 05:08:48;;;;;;;1.90;1.30;;;21.10;47.60;;;;;;5016161;28;45177;-64
2021/12/16 05:11:28;;;;;;;1.73;1.20;;;21.10;47.50;;;;;;5005954;28;43427;-64
2021/12/16 05:13:58;;;;;;;2.08;1.52;;;21.10;47.50;;;;;;5021499;28;43478;-64
2021/12/16 05:16:26;;;;;;;2.72;1.20;;;21.10;47.50;;;;;;5012231;28;43527;-64
2021/12/16 05:18:56;;;;;;;2.72;1.35;;;21.10;47.50;;;;;;5013185;28;43699;-64
2021/12/16 05:21:45;;;;;;;1.67;1.40;;;21.10;47.70;;;;;;5005627;28;43543;-65
2021/12/16 05:24:28;;;;;;;2.85;1.30;;;21.00;47.70;;;;;;5020066;28;43487;-65
2021/12/16 05:27:11;;;;;;;2.13;1.50;;;21.10;47.70;;;;;;5005526;28;43582;-64
2021/12/16 05:29:41;;;;;;;1.73;1.30;;;21.10;47.70;;;;;;5010524;28;44921;-63
2021/12/16 05:32:10;;;;;;;1.95;1.50;;;21.00;47.60;;;;;;5015518;28;43467;-65
2021/12/16 05:34:38;;;;;;;1.88;1.45;;;21.00;47.60;;;;;;5024797;28;43445;-65
2021/12/16 05:37:08;;;;;;;1.48;1.30;;;21.00;47.60;;;;;;4993832;28;43522;-65
2021/12/16 05:39:39;;;;;;;2.78;1.55;;;21.00;47.70;;;;;;5006585;28;45098;-65
2021/12/16 05:42:16;;;;;;;2.70;1.67;;;21.00;47.70;;;;;;5006517;28;43435;-64
2021/12/16 05:44:45;;;;;;;2.95;1.73;;;21.00;47.70;;;;;;4997048;28;43451;-64
2021/12/16 05:47:13;;;;;;;3.03;1.33;;;21.00;47.70;;;;;;5017554;28;43454;-64
2021/12/16 05:49:41;;;;;;;2.75;1.60;;;20.90;47.70;;;;;;5018200;28;44228;-65
2021/12/16 05:52:09;;;;;;;1.95;1.48;;;21.00;47.80;;;;;;5008277;28;43563;-65
2021/12/16 05:54:38;;;;;;;2.80;1.40;;;20.90;47.70;;;;;;5023410;28;43523;-65
2021/12/16 05:57:32;;;;;;;1.60;1.10;;;21.00;47.80;;;;;;5018963;28;43509;-64
2021/12/16 06:00:12;;;;;;;2.03;1.27;;;21.00;47.80;;;;;;5023465;28;44044;-65
2021/12/16 06:02:41;;;;;;;1.90;1.30;;;20.90;47.80;;;;;;5023242;28;43428;-65
2021/12/16 06:05:09;;;;;;;3.08;1.67;;;20.90;47.80;;;;;;5022467;28;44152;-66
2021/12/16 06:07:36;;;;;;;3.00;1.60;;;21.00;47.80;;;;;;5031727;28;43452;-65
2021/12/16 06:10:06;;;;;;;2.05;1.42;;;20.90;47.80;;;;;;5048448;28;44341;-65
2021/12/16 06:12:34;;;;;;;3.10;1.60;;;20.90;47.80;;;;;;5056842;28;43580;-64
2021/12/16 06:15:24;;;;;;;4.15;2.05;;;20.90;47.70;;;;;;5055784;28;43471;-64
2021/12/16 06:27:00;;;;;;;1.60;1.30;;;20.90;47.80;;;;;;5063204;28;43440;-65
2021/12/16 06:29:11;;;;;;;3.58;1.95;;;20.90;47.80;;;;;;5055817;28;43463;-64
2021/12/16 06:31:39;;;;;;;2.55;1.50;;;20.90;47.90;;;;;;5050585;28;44271;-65
2021/12/16 06:34:07;;;;;;;1.73;1.40;;;20.90;47.80;;;;;;5067236;28;43526;-65
2021/12/16 06:36:34;;;;;;;1.75;1.10;;;20.90;47.80;;;;;;5065783;28;43419;-63
2021/12/16 06:39:04;;;;;;;1.98;1.50;;;20.90;47.80;;;;;;5037983;28;43664;-64
2021/12/16 06:41:43;;;;;;;2.70;1.42;;;20.90;47.80;;;;;;5045999;28;44700;-66
2021/12/16 06:44:35;;;;;;;1.30;1.20;;;20.90;47.80;;;;;;5044820;28;43506;-65
2021/12/16 06:47:08;;;;;;;2.03;1.20;;;20.90;48.00;;;;;;5061315;28;43462;-63
2021/12/16 06:49:40;;;;;;;2.03;1.48;;;20.90;47.90;;;;;;5052989;28;43430;-63
2021/12/16 06:52:10;;;;;;;;;;;20.90;47.90;;;;;;5068192;28;44347;-64
2021/12/16 06:54:59;;;;;;;2.40;1.25;;;20.90;47.80;;;;;;5065049;28;43475;-64
2021/12/16 07:00:11;;;;;;;2.33;1.50;;;20.90;47.90;;;;;;5061649;28;43539;-63
2021/12/16 07:03:01;;;;;;;2.22;1.52;;;20.90;47.80;;;;;;5065590;28;43776;-63
2021/12/16 07:05:32;;;;;;;1.70;1.20;;;20.90;47.80;;;;;;5065489;28;43799;-64
2021/12/16 07:08:02;;;;;;;2.00;1.50;;;20.90;47.80;;;;;;5063314;28;43422;-63
2021/12/16 07:10:29;;;;;;;2.35;1.60;;;20.90;47.80;;;;;;5055597;28;43549;-62
2021/12/16 07:13:05;;;;;;;1.52;1.30;;;20.90;47.80;;;;;;5065098;28;44083;-64
2021/12/16 07:15:34;;;;;;;2.53;1.27;;;21.00;47.80;;;;;;5063333;28;43478;-64
2021/12/16 07:18:04;;;;;;;2.42;1.60;;;20.90;47.70;;;;;;5050622;28;43540;-64
2021/12/16 07:20:34;;;;;;;1.83;1.40;;;21.00;47.80;;;;;;5058253;28;43434;-65
2021/12/16 07:23:03;;;;;;;2.47;1.60;;;21.00;47.80;;;;;;5055684;28;44100;-64
2021/12/16 07:25:32;;;;;;;1.67;1.40;;;20.90;47.70;;;;;;5057738;28;43400;-65
2021/12/16 07:27:59;;;;;;;2.15;1.50;;;20.90;47.70;;;;;;5056119;28;43438;-64
2021/12/16 07:30:27;;;;;;;2.00;1.50;;;20.90;47.70;;;;;;5046831;28;43471;-64
2021/12/16 07:32:54;;;;;;;1.90;1.60;;;21.00;47.70;;;;;;5064444;28;43812;-64
2021/12/16 07:35:25;;;;;;;3.10;1.63;;;20.90;47.60;;;;;;5049228;28;43524;-65
2021/12/16 07:37:54;;;;;;;2.30;1.48;;;20.90;47.60;;;;;;5057037;28;43483;-63
2021/12/16 07:40:26;;;;;;;1.95;1.25;;;20.90;47.60;;;;;;5047390;28;43439;-65
2021/12/16 07:45:35;;;;;;;2.15;1.38;;;21.00;47.60;;;;;;5060726;28;43416;-64
2021/12/16 07:48:04;;;;;;;2.22;1.60;;;21.00;47.70;;;;;;5058045;28;43470;-64
2021/12/16 07:50:33;;;;;;;2.20;1.40;;;21.00;47.70;;;;;;5061972;28;43449;-63
2021/12/16 07:53:01;;;;;;;1.90;1.70;;;21.00;47.70;;;;;;5063062;28;43780;-64
2021/12/16 07:55:28;;;;;;;1.83;1.42;;;21.00;47.70;;;;;;5058587;28;43399;-63
2021/12/16 07:57:56;;;;;;;3.45;1.40;;;21.00;47.60;;;;;;5061491;28;43460;-64
2021/12/16 08:00:31;;;;;;;2.20;1.50;;;21.00;47.60;;;;;;5057881;28;43640;-65
2021/12/16 08:03:00;;;;;;;2.33;1.38;;;21.00;47.60;;;;;;5064230;28;43871;-64
2021/12/16 08:05:32;;;;;;;2.10;1.30;;;21.00;47.60;;;;;;5059919;28;43498;-65
2021/12/16 08:08:00;;;;;;;1.98;1.45;;;21.00;47.50;;;;;;5047202;28;43477;-65
2021/12/16 08:10:28;;;;;;;1.40;1.30;;;21.00;47.50;;;;;;5056944;28;43443;-64
2021/12/16 08:12:55;;;;;;;2.17;1.50;;;21.00;47.50;;;;;;5042212;28;43923;-64
2021/12/16 08:15:23;;;;;;;1.70;1.30;;;21.00;47.50;;;;;;5067068;28;43895;-63
2021/12/16 08:17:50;;;;;;;1.45;1.35;;;21.00;47.50;;;;;;5070682;28;43490;-64
2021/12/16 08:20:18;;;;;;;1.35;1.08;;;21.00;47.50;;;;;;5061861;28;43498;-65
2021/12/16 08:22:48;;;;;;;2.05;1.50;;;21.00;47.50;;;;;;5054515;28;44694;-65
2021/12/16 08:25:19;;;;;;;1.83;1.40;;;21.00;47.50;;;;;;5061622;28;43497;-64
2021/12/16 08:27:47;;;;;;;1.37;1.20;;;21.00;47.60;;;;;;5063323;28;43493;-65
2021/12/16 08:30:20;;;;;;;2.45;1.42;;;21.00;47.60;;;;;;5058636;28;43489;-63
2021/12/16 08:32:48;;;;;;;1.83;1.40;;;21.10;47.90;;;;;;5034671;28;44327;-63
2021/12/16 08:35:16;;;;;;;1.25;1.13;;;21.10;47.70;;;;;;5059862;28;43464;-63
2021/12/16 08:37:44;;;;;;;2.15;1.40;;;21.10;47.70;;;;;;5062356;28;43380;-65
2021/12/16 08:40:18;;;;;;;2.85;1.70;;;21.10;47.70;;;;;;5059250;28;43526;-63
2021/12/16 08:42:46;;;;;;;1.65;1.30;;;21.10;47.70;;;;;;5053757;28;44162;-64
2021/12/16 08:45:17;;;;;;;2.22;1.52;;;21.10;47.70;;;;;;5045051;28;43707;-63
2021/12/16 08:47:46;;;;;;;2.20;1.25;;;21.10;47.80;;;;;;5057263;28;43453;-64
2021/12/16 08:50:16;;;;;;;2.42;1.45;;;21.10;47.80;;;;;;5053397;28;43607;-64
2021/12/16 08:52:44;;;;;;;2.20;1.40;;;21.10;47.80;;;;;;5065961;28;44084;-64
2021/12/16 08:55:14;;;;;;;3.35;1.33;;;21.10;47.80;;;;;;5046896;28;43740;-64
2021/12/16 08:57:42;;;;;;;4.07;1.58;;;21.10;48.00;;;;;;5061652;28;43541;-63
2021/12/16 09:00:15;;;;;;;3.70;1.20;;;21.10;48.00;;;;;;5053086;28;43423;-64
2021/12/16 09:02:43;;;;;;;2.15;1.42;;;21.10;47.90;;;;;;5065129;28;43813;-64
2021/12/16 09:05:11;;;;;;;2.92;1.35;;;21.10;48.00;;;;;;5042708;28;44086;-63
2021/12/16 09:07:39;;;;;;;4.88;1.13;;;21.20;48.00;;;;;;5059624;28;43662;-64
2021/12/16 09:10:11;;;;;;;2.70;1.10;;;21.20;47.90;;;;;;5061862;28;43480;-63
2021/12/16 09:12:51;;;;;;;3.33;1.58;;;21.20;48.00;;;;;;5059400;28;43569;-64
2021/12/16 09:15:21;;;;;;;2.97;1.40;;;21.20;47.90;;;;;;5046404;28;43443;-63
2021/12/16 09:17:51;;;;;;;1.98;1.30;;;21.20;47.90;;;;;;5043078;28;43476;-63
2021/12/16 09:20:20;;;;;;;2.75;1.20;;;21.30;48.00;;;;;;5061131;28;43455;-62
2021/12/16 09:22:48;;;;;;;2.50;1.20;;;21.20;48.00;;;;;;5061465;28;44706;-62
2021/12/16 09:25:17;;;;;;;3.92;1.33;;;21.20;48.00;;;;;;5057172;28;43697;-62
2021/12/16 09:27:44;;;;;;;1.65;1.30;;;21.20;48.00;;;;;;5048783;28;43413;-62
2021/12/16 09:30:16;;;;;;;1.52;1.42;;;21.30;48.10;;;;;;5049107;28;43497;-63
2021/12/16 09:32:45;;;;;;;3.35;1.27;;;21.30;48.00;;;;;;5048598;28;43577;-62
2021/12/16 09:35:16;;;;;;;2.50;1.65;;;21.30;48.00;;;;;;5057487;28;43580;-62
2021/12/16 09:37:43;;;;;;;2.03;1.50;;;21.30;47.90;;;;;;5064315;28;43477;-62
2021/12/16 09:40:21;;;;;;;2.22;1.20;;;21.30;47.90;;;;;;5050801;28;43434;-62
2021/12/16 09:42:52;;;;;;;1.35;1.27;;;21.30;47.90;;;;;;5059530;28;43955;-62
2021/12/16 09:45:21;;;;;;;1.30;1.20;;;21.30;47.80;;;;;;5067211;28;43405;-63
2021/12/16 09:47:50;;;;;;;3.85;1.10;;;21.40;47.90;;;;;;5052882;28;43439;-63
2021/12/16 09:50:22;;;;;;;1.95;1.70;;;21.40;47.90;;;;;;5066727;28;43566;-62
2021/12/16 09:52:50;;;;;;;2.00;1.40;;;21.40;47.90;;;;;;5053922;28;44688;-62
2021/12/16 09:55:19;;;;;;;1.65;1.20;;;21.40;47.90;;;;;;5062577;28;43538;-63
2021/12/16 09:57:48;;;;;;;1.50;1.40;;;21.40;47.90;;;;;;5064669;28;43406;-63
2021/12/16 10:00:19;;;;;;;2.22;1.25;;;21.50;47.90;;;;;;5065808;28;43494;-62
2021/12/16 10:02:48;;;;;;;1.52;1.30;;;21.50;47.90;;;;;;5060749;28;44675;-62
2021/12/16 10:05:17;;;;;;;1.40;1.30;;;21.50;47.90;;;;;;5048113;28;43530;-62
2021/12/16 10:07:46;;;;;;;1.27;1.17;;;21.50;47.90;;;;;;5031225;28;43491;-62
2021/12/16 10:10:23;;;;;;;1.40;1.30;;;21.50;48.00;;;;;;5066876;28;43747;-62
2021/12/16 10:12:57;;;;;;;1.30;1.20;;;21.50;48.00;;;;;;5036854;28;43810;-62
2021/12/16 10:18:08;;;;;;;1.73;1.30;;;21.50;48.00;;;;;;5050635;28;43543;-62
2021/12/16 10:20:52;;;;;;;2.00;1.50;;;21.60;48.00;;;;;;5045946;28;43637;-62
2021/12/16 10:23:28;;;;;;;1.83;1.38;;;21.60;48.00;;;;;;5047465;28;43789;-62
2021/12/16 10:25:59;;;;;;;3.08;1.50;;;21.60;48.00;;;;;;5047615;28;43588;-63
2021/12/16 10:28:50;;;;;;;1.58;1.30;;;21.60;48.00;;;;;;5044461;28;43914;-63
2021/12/16 10:31:23;;;;;;;2.58;1.55;;;21.70;48.00;;;;;;5052128;28;43585;-63
2021/12/16 10:33:57;;;;;;;3.22;1.60;;;21.70;48.00;;;;;;5038062;28;43821;-63
2021/12/16 10:36:33;;;;;;;1.88;1.63;;;21.80;48.00;;;;;;5047660;28;44856;-62
2021/12/16 10:39:16;;;;;;;1.77;1.58;;;21.70;47.90;;;;;;5050387;28;44969;-62
2021/12/16 10:41:47;;;;;;;1.55;1.45;;;21.80;47.90;;;;;;5046373;28;43546;-63
2021/12/16 10:44:22;;;;;;;2.17;1.35;;;21.90;48.00;;;;;;5048428;28;43797;-62
2021/12/16 10:46:49;;;;;;;1.73;1.40;;;21.90;48.00;;;;;;5045478;28;43536;-63
2021/12/16 10:49:25;;;;;;;2.15;1.55;;;21.90;47.90;;;;;;5049067;28;45021;-62
2021/12/16 10:51:56;;;;;;;1.50;1.40;;;21.90;47.90;;;;;;5046879;28;43617;-63
2021/12/16 10:54:41;;;;;;;3.15;1.88;;;22.00;48.00;;;;;;5044995;28;44692;-63
2021/12/16 10:57:11;;;;;;;2.17;1.50;;;21.90;47.90;;;;;;5047909;28;43672;-63
2021/12/16 10:59:41;;;;;;;2.53;1.50;;;21.90;47.90;;;;;;5048729;28;43556;-62
2021/12/16 11:02:16;;;;;;;1.60;1.23;;;22.00;48.00;;;;;;5046505;28;43616;-62
2021/12/16 11:05:10;;;;;;;2.25;1.58;;;22.00;48.00;;;;;;5044755;28;43970;-63
2021/12/16 11:07:44;;;;;;;2.97;1.50;;;22.00;48.00;;;;;;5033546;28;43722;-62
2021/12/16 11:10:18;;;;;;;2.05;1.55;;;22.00;48.10;;;;;;5046459;28;43597;-62
2021/12/16 11:12:51;;;;;;;3.47;1.52;;;22.00;48.10;;;;;;5046007;28;43611;-62
2021/12/16 11:15:28;;;;;;;2.35;1.50;;;21.90;48.10;;;;;;5049009;28;44976;-62
2021/12/16 11:18:13;;;;;;;2.30;1.63;;;22.00;48.10;;;;;;5045912;28;43658;-62
2021/12/16 11:20:44;;;;;;;3.67;1.80;;;22.00;48.10;;;;;;5049278;28;44899;-62
2021/12/16 11:23:15;;;;;;;1.83;1.47;;;22.00;48.20;;;;;;5049048;28;43787;-62
2021/12/16 11:25:45;;;;;;;1.55;1.45;;;22.00;48.80;;;;;;5049593;28;46411;-62
2021/12/16 11:28:24;;;;;;;1.83;1.63;;;22.10;48.20;;;;;;5044369;28;43708;-63
2021/12/16 11:30:56;;;;;;;1.98;1.50;;;22.10;48.20;;;;;;5043704;28;43591;-63
2021/12/16 11:33:47;;;;;;;1.50;1.40;;;22.10;48.10;;;;;;5043532;28;43617;-63
2021/12/16 11:36:21;;;;;;;1.77;1.50;;;22.20;48.10;;;;;;5045019;28;44991;-62
2021/12/16 11:39:04;;;;;;;2.67;1.60;;;22.20;48.10;;;;;;5047029;28;43650;-63
2021/12/16 11:42:00;;;;;;;2.63;1.60;;;22.20;48.10;;;;;;5046004;28;43558;-63
2021/12/16 11:44:29;;;;;;;1.58;1.48;;;22.20;48.00;;;;;;5050346;28;43516;-62
2021/12/16 11:47:05;;;;;;;2.17;1.70;;;22.20;48.00;;;;;;5044653;28;44968;-62
2021/12/16 11:49:37;;;;;;;2.28;1.70;;;22.20;48.00;;;;;;5042789;28;43941;-62
2021/12/16 11:52:27;;;;;;;3.42;1.70;;;22.30;48.00;;;;;;5046832;28;43672;-63
2021/12/16 11:55:08;;;;;;;1.88;1.77;;;22.30;47.90;;;;;;5053039;28;43632;-63
2021/12/16 11:57:39;;;;;;;2.03;1.92;;;22.30;48.00;;;;;;5046037;28;44047;-62
2021/12/16 12:00:17;;;;;;;1.65;1.55;;;22.30;47.90;;;;;;5046814;28;43930;-63
2021/12/16 12:02:46;;;;;;;1.95;1.77;;;22.30;47.90;;;;;;5046511;28;43634;-62
2021/12/16 12:05:34;;;;;;;1.88;1.77;;;22.30;47.80;;;;;;5051098;28;43704;-62
2021/12/16 12:08:23;;;;;;;1.77;1.60;;;22.30;47.80;;;;;;5054001;28;44036;-63
2021/12/16 12:11:16;;;;;;;2.10;1.55;;;22.30;47.80;;;;;;5027166;28;43963;-62
2021/12/16 12:13:48;;;;;;;1.80;1.70;;;22.40;47.80;;;;;;5050345;28;43530;-62
2021/12/16 12:16:24;;;;;;;1.70;1.60;;;22.40;47.80;;;;;;5031965;28;44467;-63
2021/12/16 12:18:59;;;;;;;2.05;1.95;;;22.40;47.80;;;;;;5046518;28;43805;-62
2021/12/16 12:21:37;;;;;;;1.90;1.80;;;22.40;47.80;;;;;;5052268;28;44891;-63
2021/12/16 12:24:15;;;;;;;1.83;1.60;;;22.40;47.70;;;;;;5056919;28;43666;-63
2021/12/16 12:26:46;;;;;;;2.13;1.95;;;22.40;47.70;;;;;;5049145;28;44270;-63
2021/12/16 12:29:27;;;;;;;2.15;1.90;;;22.40;47.70;;;;;;5049815;28;44945;-63
2021/12/16 12:31:59;;;;;;;2.00;1.90;;;22.40;47.70;;;;;;5032703;28;44701;-63
2021/12/16 12:34:29;;;;;;;1.90;1.80;;;22.40;47.70;;;;;;5054843;28;43606;-63
2021/12/16 12:37:00;;;;;;;2.42;2.10;;;22.40;47.70;;;;;;5035505;28;44292;-63
2021/12/16 12:39:34;;;;;;;1.98;1.77;;;22.40;47.70;;;;;;5058129;28;43641;-63
2021/12/16 12:42:02;;;;;;;2.50;2.08;;;22.40;47.70;;;;;;5024736;28;44869;-63
2021/12/16 12:44:30;;;;;;;2.10;1.98;;;22.50;47.70;;;;;;5039641;28;43564;-63
2021/12/16 12:47:01;;;;;;;2.83;1.95;;;22.50;47.70;;;;;;5052550;28;44071;-63
2021/12/16 12:49:31;;;;;;;2.00;1.90;;;22.50;47.70;;;;;;5055311;28;44058;-63
2021/12/16 12:52:10;;;;;;;4.07;2.03;;;22.50;47.60;;;;;;5052249;28;44909;-63
2021/12/16 12:54:42;;;;;;;3.47;2.10;;;22.50;47.70;;;;;;5051879;28;44161;-63
2021/12/16 12:57:25;;;;;;;2.38;1.80;;;22.50;47.60;;;;;;5055251;28;43678;-63
2021/12/16 12:59:55;;;;;;;1.90;1.80;;;22.50;47.70;;;;;;5037690;28;44309;-63
2021/12/16 13:02:36;;;;;;;1.90;1.80;;;22.50;47.70;;;;;;5059278;28;43635;-63
2021/12/16 13:05:17;;;;;;;2.17;1.98;;;22.50;47.70;;;;;;5063052;28;43579;-63
2021/12/16 13:07:52;;;;;;;2.58;2.03;;;22.50;47.70;;;;;;5033343;28;43705;-62
2021/12/16 13:10:24;;;;;;;2.20;2.00;;;22.50;47.70;;;;;;5062304;28;44163;-62
2021/12/16 13:13:04;;;;;;;2.22;1.98;;;22.50;47.60;;;;;;5035295;28;44685;-63
2021/12/16 13:26:40;;;;;;;1.80;1.70;;;22.50;47.70;;;;;;5043838;28;43590;-63
2021/12/16 13:29:31;;;;;;;2.03;1.92;;;22.60;47.70;;;;;;5056928;28;43549;-63
2021/12/16 13:32:12;;;;;;;;;;;22.60;47.70;;;;;;5043979;28;43805;-63
2021/12/16 13:37:49;;;;;;;2.03;1.83;;;22.60;47.70;;;;;;5059292;28;43578;-63
2021/12/16 13:40:19;;;;;;;1.90;1.80;;;22.70;47.70;;;;;;5037170;28;43594;-63
2021/12/16 13:42:54;;;;;;;1.80;1.70;;;22.70;47.70;;;;;;5061328;28;43807;-62
2021/12/16 13:45:31;;;;;;;2.17;1.85;;;22.70;47.60;;;;;;5037191;28;44009;-62
2021/12/16 13:48:17;;;;;;;2.30;2.10;;;22.70;47.60;;;;;;5048461;28;43585;-62
2021/12/16 14:02:03;;;;;;;2.22;2.03;;;22.70;47.60;;;;;;5047826;28;44173;-62
2021/12/16 14:05:00;;;;;;;2.00;1.90;;;22.70;47.60;;;;;;5053493;28;44179;-63
2021/12/16 14:07:58;;;;;;;4.55;2.03;;;22.70;47.70;;;;;;5054232;28;43513;-63
2021/12/16 14:10:51;;;;;;;3.85;2.30;;;22.70;47.70;;;;;;5053522;28;44160;-62
2021/12/16 14:16:23;;;;;;;4.82;1.95;;;22.80;47.70;;;;;;5050977;28;44011;-62
2021/12/16 14:25:32;;;;;;;1.60;1.50;;;22.80;47.60;;;;;;5051354;28;43656;-62
2021/12/16 14:43:41;;;;;;;1.90;1.77;;;23.00;47.60;;;;;;5037510;28;43495;-62
2021/12/16 14:46:11;;;;;;;2.83;1.98;;;23.00;47.60;;;;;;5033046;28;43616;-62
2021/12/16 14:48:39;;;;;;;1.70;1.60;;;23.00;47.60;;;;;;5049919;28;43983;-62
2021/12/16 14:51:12;;;;;;;3.00;1.50;;;23.00;47.60;;;;;;5048643;28;43669;-63
2021/12/16 14:53:43;;;;;;;1.70;1.50;;;23.00;47.60;;;;;;5045706;28;44731;-62
2021/12/16 14:56:15;;;;;;;2.22;1.80;;;23.00;47.70;;;;;;5041905;28;43645;-63
2021/12/16 14:58:49;;;;;;;2.10;1.90;;;23.00;47.60;;;;;;5056672;28;43750;-63
2021/12/16 15:01:28;;;;;;;2.38;1.88;;;23.00;47.50;;;;;;5052924;28;43574;-63
2021/12/16 15:03:57;;;;;;;2.15;1.63;;;23.00;47.50;;;;;;5050788;28;43590;-63
2021/12/16 15:06:36;;;;;;;2.00;1.80;;;23.00;47.50;;;;;;5046414;28;43598;-62
2021/12/16 15:09:14;;;;;;;3.00;1.70;;;23.10;47.50;;;;;;5027170;28;45441;-62
2021/12/16 15:11:58;;;;;;;2.42;1.63;;;23.10;47.50;;;;;;5044123;28;43690;-62
2021/12/16 15:14:52;;;;;;;1.80;1.70;;;23.10;47.50;;;;;;5047739;28;43627;-63
2021/12/16 15:45:17;;;;;;;2.25;1.90;;;23.10;47.40;;;;;;5051128;28;43538;-62
2021/12/16 15:48:10;;;;;;;1.63;1.50;;;23.20;47.40;;;;;;5046771;28;43670;-63
2021/12/16 15:50:52;;;;;;;1.88;1.77;;;23.10;47.40;;;;;;5050678;28;43547;-62
2021/12/16 15:53:29;;;;;;;1.85;1.75;;;23.10;47.40;;;;;;5035452;28;45624;-63
2021/12/16 15:56:06;;;;;;;2.22;1.50;;;23.10;47.40;;;;;;5044091;28;43686;-63
2021/12/16 15:58:45;;;;;;;1.70;1.60;;;23.10;47.40;;;;;;5045596;28;43663;-62
2021/12/16 16:01:30;;;;;;;1.60;1.50;;;23.10;47.30;;;;;;5043618;28;43630;-63
2021/12/16 16:04:01;;;;;;;1.80;1.70;;;23.10;47.40;;;;;;5027779;28;43804;-63
2021/12/16 16:06:28;;;;;;;1.67;1.58;;;23.20;47.40;;;;;;4985173;28;1256050;-63
2021/12/16 16:09:00;;;;;;;1.60;1.50;;;23.10;47.30;;;;;;5044379;28;43674;-63
2021/12/16 16:11:34;;;;;;;1.58;1.48;;;23.10;47.30;;;;;;5049095;28;43679;-63
2021/12/16 16:14:04;;;;;;;1.40;1.30;;;23.20;47.40;;;;;;5041821;28;44036;-63
2021/12/16 16:16:42;;;;;;;1.60;1.48;;;23.20;47.40;;;;;;5049229;28;43635;-63
2021/12/16 16:19:12;;;;;;;1.50;1.40;;;23.10;47.40;;;;;;5049370;28;43619;-63
2021/12/16 16:21:43;;;;;;;1.23;1.13;;;23.20;47.40;;;;;;5033266;28;44064;-63
2021/12/16 16:24:30;;;;;;;1.80;1.40;;;23.10;47.40;;;;;;5051917;28;43795;-63
2021/12/16 16:27:00;;;;;;;1.38;1.27;;;23.10;47.30;;;;;;5051848;28;43620;-63
2021/12/16 16:29:31;;;;;;;1.40;1.30;;;23.20;47.40;;;;;;5053706;28;43618;-63
2021/12/16 16:31:59;;;;;;;1.20;1.20;;;23.10;47.40;;;;;;5049649;28;43641;-63
2021/12/16 16:34:32;;;;;;;1.30;1.20;;;23.10;47.40;;;;;;5043036;28;44946;-63
2021/12/16 16:37:06;;;;;;;1.30;1.02;;;23.10;47.30;;;;;;5053784;28;43894;-63
2021/12/16 16:39:38;;;;;;;2.28;1.30;;;23.20;47.40;;;;;;5055875;28;43604;-63
2021/12/16 16:42:12;;;;;;;1.33;1.23;;;23.20;47.40;;;;;;5051343;28;43611;-63
2021/12/16 16:44:40;;;;;;;;;;;23.10;47.30;;;;;;5036640;28;44215;-63
2021/12/16 16:47:24;;;;;;;1.10;1.10;;;23.10;47.30;;;;;;5050919;28;43653;-63
2021/12/16 16:49:53;;;;;;;1.30;1.17;;;23.10;47.30;;;;;;5032156;28;43605;-63
2021/12/16 16:52:28;;;;;;;1.75;1.17;;;23.10;47.40;;;;;;5053298;28;43701;-63
2021/12/16 16:55:11;;;;;;;1.08;1.08;;;23.10;47.40;;;;;;5045732;28;44999;-63
2021/12/16 16:57:40;;;;;;;1.98;1.23;;;23.10;47.40;;;;;;5045035;28;43652;-63
2021/12/16 17:00:22;;;;;;;1.17;1.17;;;23.10;47.40;;;;;;5045622;28;43626;-63
2021/12/16 17:03:08;;;;;;;1.35;1.25;;;23.10;47.40;;;;;;5050021;28;43689;-63
2021/12/16 17:05:40;;;;;;;2.40;1.27;;;23.10;47.40;;;;;;5051229;28;43882;-63
2021/12/16 17:08:13;;;;;;;2.38;1.33;;;23.10;47.40;;;;;;5046248;28;43604;-63
2021/12/16 17:10:45;;;;;;;1.50;1.40;;;23.10;47.40;;;;;;5057807;28;43596;-62